sensor_id;sensor_type;location;lat;lon;timestamp;pressure;altitude;pressure_sealevel;temperature;humidity
84143;BME280;74260;50.772;7.730;2024-02-16T00:00:03;98432.72;;;12.79;75.50
84143;BME280;74260;50.772;7.730;2024-02-16T00:00:33;98429.13;;;12.77;75.89
84143;BME280;74260;50.772;7.730;2024-02-16T00:01:04;98435.31;;;12.79;75.70
84143;BME280;74260;50.772;7.730;2024-02-16T00:01:34;98432.53;;;12.76;75.15
84143;BME280;74260;50.772;7.730;2024-02-16T00:02:06;98433.44;;;12.76;75.41
84143;BME280;74260;50.772;7.730;2024-02-16T00:02:37;98419.97;;;12.69;76.15
84143;BME280;74260;50.772;7.730;2024-02-16T00:03:08;98428.81;;;12.72;76.34
84143;BME280;74260;50.772;7.730;2024-02-16T00:03:38;98437.59;;;12.74;76.13
84143;BME280;74260;50.772;7.730;2024-02-16T00:04:08;98432.22;;;12.71;76.42
84143;BME280;74260;50.772;7.730;2024-02-16T00:04:39;98429.72;;;12.73;76.58
84143;BME280;74260;50.772;7.730;2024-02-16T00:05:10;98427.81;;;12.70;75.18
84143;BME280;74260;50.772;7.730;2024-02-16T00:05:43;98434.69;;;12.70;75.80
84143;BME280;74260;50.772;7.730;2024-02-16T00:06:14;98431.00;;;12.66;76.80
84143;BME280;74260;50.772;7.730;2024-02-16T00:06:44;98430.88;;;12.65;76.89
84143;BME280;74260;50.772;7.730;2024-02-16T00:07:14;98429.72;;;12.73;75.41
84143;BME280;74260;50.772;7.730;2024-02-16T00:07:45;98429.22;;;12.90;74.48
84143;BME280;74260;50.772;7.730;2024-02-16T00:08:15;98430.13;;;12.91;75.08
84143;BME280;74260;50.772;7.730;2024-02-16T00:08:46;98423.59;;;12.84;74.86
84143;BME280;74260;50.772;7.730;2024-02-16T00:09:17;98430.59;;;12.85;75.87
84143;BME280;74260;50.772;7.730;2024-02-16T00:09:47;98430.47;;;12.84;75.56
84143;BME280;74260;50.772;7.730;2024-02-16T00:10:17;98426.81;;;12.93;74.83
84143;BME280;74260;50.772;7.730;2024-02-16T00:10:49;98423.22;;;12.91;74.74
84143;BME280;74260;50.772;7.730;2024-02-16T00:11:20;98428.94;;;12.99;74.15
84143;BME280;74260;50.772;7.730;2024-02-16T00:11:51;98424.44;;;12.96;74.97
84143;BME280;74260;50.772;7.730;2024-02-16T00:12:23;98411.88;;;12.89;75.10
84143;BME280;74260;50.772;7.730;2024-02-16T00:12:53;98433.13;;;12.97;74.78
84143;BME280;74260;50.772;7.730;2024-02-16T00:13:23;98426.69;;;13.03;75.03
84143;BME280;74260;50.772;7.730;2024-02-16T00:13:54;98426.69;;;13.03;74.54
84143;BME280;74260;50.772;7.730;2024-02-16T00:14:24;98430.72;;;13.00;75.14
84143;BME280;74260;50.772;7.730;2024-02-16T00:14:54;98425.56;;;13.00;74.78
84143;BME280;74260;50.772;7.730;2024-02-16T00:15:25;98416.91;;;12.99;74.08
84143;BME280;74260;50.772;7.730;2024-02-16T00:15:55;98421.09;;;12.97;74.62
84143;BME280;74260;50.772;7.730;2024-02-16T00:16:25;98419.28;;;12.96;74.98
84143;BME280;74260;50.772;7.730;2024-02-16T00:16:56;98426.25;;;12.97;75.46
84143;BME280;74260;50.772;7.730;2024-02-16T00:17:26;98413.13;;;12.94;74.88
84143;BME280;74260;50.772;7.730;2024-02-16T00:17:57;98417.69;;;12.98;74.36
84143;BME280;74260;50.772;7.730;2024-02-16T00:18:27;98406.03;;;12.92;75.21
84143;BME280;74260;50.772;7.730;2024-02-16T00:19:01;98420.88;;;12.94;74.55
84143;BME280;74260;50.772;7.730;2024-02-16T00:19:31;98424.13;;;12.92;75.79
84143;BME280;74260;50.772;7.730;2024-02-16T00:20:01;98418.75;;;12.89;75.98
84143;BME280;74260;50.772;7.730;2024-02-16T00:20:33;98423.34;;;12.93;75.27
84143;BME280;74260;50.772;7.730;2024-02-16T00:21:04;98407.50;;;12.88;74.98
84143;BME280;74260;50.772;7.730;2024-02-16T00:21:35;98411.88;;;12.89;75.22
84143;BME280;74260;50.772;7.730;2024-02-16T00:22:05;98400.56;;;12.87;74.71
84143;BME280;74260;50.772;7.730;2024-02-16T00:22:39;98415.09;;;12.98;74.68
84143;BME280;74260;50.772;7.730;2024-02-16T00:23:09;98410.53;;;12.94;74.91
84143;BME280;74260;50.772;7.730;2024-02-16T00:23:39;98408.53;;;12.90;75.14
84143;BME280;74260;50.772;7.730;2024-02-16T00:24:10;98408.41;;;12.89;76.56
84143;BME280;74260;50.772;7.730;2024-02-16T00:24:40;98407.41;;;12.87;75.95
84143;BME280;74260;50.772;7.730;2024-02-16T00:25:10;98407.22;;;12.84;76.17
84143;BME280;74260;50.772;7.730;2024-02-16T00:25:41;98402.69;;;12.81;75.39
84143;BME280;74260;50.772;7.730;2024-02-16T00:26:11;98411.47;;;12.83;75.78
84143;BME280;74260;50.772;7.730;2024-02-16T00:26:42;98413.25;;;12.84;75.59
84143;BME280;74260;50.772;7.730;2024-02-16T00:27:14;98403.72;;;12.83;75.20
84143;BME280;74260;50.772;7.730;2024-02-16T00:27:44;98406.31;;;12.83;76.25
84143;BME280;74260;50.772;7.730;2024-02-16T00:28:14;98412.28;;;12.82;76.14
84143;BME280;74260;50.772;7.730;2024-02-16T00:28:45;98407.88;;;12.81;75.97
84143;BME280;74260;50.772;7.730;2024-02-16T00:29:15;98404.53;;;12.82;75.74
84143;BME280;74260;50.772;7.730;2024-02-16T00:29:45;98401.13;;;12.83;75.61
84143;BME280;74260;50.772;7.730;2024-02-16T00:30:22;98402.13;;;12.85;76.27
84143;BME280;74260;50.772;7.730;2024-02-16T00:30:52;98397.53;;;12.81;75.30
84143;BME280;74260;50.772;7.730;2024-02-16T00:31:23;98399.91;;;12.78;76.03
84143;BME280;74260;50.772;7.730;2024-02-16T00:31:53;98403.63;;;12.82;76.09
84143;BME280;74260;50.772;7.730;2024-02-16T00:32:24;98403.63;;;12.82;76.11
84143;BME280;74260;50.772;7.730;2024-02-16T00:32:58;98401.69;;;12.79;75.52
84143;BME280;74260;50.772;7.730;2024-02-16T00:33:29;98403.41;;;12.78;75.55
84143;BME280;74260;50.772;7.730;2024-02-16T00:33:59;98399.81;;;12.76;76.00
84143;BME280;74260;50.772;7.730;2024-02-16T00:34:29;98402.97;;;12.72;77.04
84143;BME280;74260;50.772;7.730;2024-02-16T00:35:03;98412.19;;;12.69;77.49
84143;BME280;74260;50.772;7.730;2024-02-16T00:35:33;98396.28;;;12.63;76.51
84143;BME280;74260;50.772;7.730;2024-02-16T00:36:04;98395.94;;;12.58;76.69
84143;BME280;74260;50.772;7.730;2024-02-16T00:36:34;98406.38;;;12.60;76.22
84143;BME280;74260;50.772;7.730;2024-02-16T00:37:05;98401.91;;;12.57;76.66
84143;BME280;74260;50.772;7.730;2024-02-16T00:37:39;98406.16;;;12.57;77.17
84143;BME280;74260;50.772;7.730;2024-02-16T00:38:09;98407.75;;;12.55;77.15
84143;BME280;74260;50.772;7.730;2024-02-16T00:38:40;98403.19;;;12.51;76.80
84143;BME280;74260;50.772;7.730;2024-02-16T00:39:10;98414.94;;;12.59;76.50
84143;BME280;74260;50.772;7.730;2024-02-16T00:39:40;98406.97;;;12.56;76.60
84143;BME280;74260;50.772;7.730;2024-02-16T00:40:11;98408.00;;;12.58;76.67
84143;BME280;74260;50.772;7.730;2024-02-16T00:40:42;98405.97;;;12.54;77.13
84143;BME280;74260;50.772;7.730;2024-02-16T00:41:18;98406.72;;;12.53;76.86
84143;BME280;74260;50.772;7.730;2024-02-16T00:41:49;98411.56;;;12.60;76.57
84143;BME280;74260;50.772;7.730;2024-02-16T00:42:20;98400.63;;;12.64;76.73
84143;BME280;74260;50.772;7.730;2024-02-16T00:42:50;98409.50;;;12.67;76.55
84143;BME280;74260;50.772;7.730;2024-02-16T00:43:20;98410.81;;;12.74;75.71
84143;BME280;74260;50.772;7.730;2024-02-16T00:43:51;98405.84;;;12.77;75.33
84143;BME280;74260;50.772;7.730;2024-02-16T00:44:22;98411.28;;;12.80;75.42
84143;BME280;74260;50.772;7.730;2024-02-16T00:44:52;98407.69;;;12.78;75.71
84143;BME280;74260;50.772;7.730;2024-02-16T00:45:23;98405.84;;;12.77;75.96
84143;BME280;74260;50.772;7.730;2024-02-16T00:45:53;98415.09;;;12.73;75.71
84143;BME280;74260;50.772;7.730;2024-02-16T00:46:23;98411.53;;;12.71;77.33
84143;BME280;74260;50.772;7.730;2024-02-16T00:46:54;98405.91;;;12.65;76.66
84143;BME280;74260;50.772;7.730;2024-02-16T00:47:24;98410.97;;;12.64;76.43
84143;BME280;74260;50.772;7.730;2024-02-16T00:47:56;98415.16;;;12.62;76.78
84143;BME280;74260;50.772;7.730;2024-02-16T00:48:27;98407.28;;;12.60;76.81
84143;BME280;74260;50.772;7.730;2024-02-16T00:48:57;98406.16;;;12.57;77.84
84143;BME280;74260;50.772;7.730;2024-02-16T00:49:28;98405.97;;;12.54;77.45
84143;BME280;74260;50.772;7.730;2024-02-16T00:50:00;98413.72;;;12.54;76.43
84143;BME280;74260;50.772;7.730;2024-02-16T00:50:30;98408.56;;;12.54;75.94
84143;BME280;74260;50.772;7.730;2024-02-16T00:51:01;98402.47;;;12.53;76.64
84143;BME280;74260;50.772;7.730;2024-02-16T00:51:31;98402.56;;;12.55;76.45
84143;BME280;74260;50.772;7.730;2024-02-16T00:52:01;98404.16;;;12.53;77.10
84143;BME280;74260;50.772;7.730;2024-02-16T00:52:32;98404.16;;;12.53;77.85
84143;BME280;74260;50.772;7.730;2024-02-16T00:53:02;98400.34;;;12.48;78.22
84143;BME280;74260;50.772;7.730;2024-02-16T00:53:34;98407.09;;;12.46;78.31
84143;BME280;74260;50.772;7.730;2024-02-16T00:54:05;98405.88;;;12.41;77.77
84143;BME280;74260;50.772;7.730;2024-02-16T00:54:35;98406.00;;;12.42;77.95
84143;BME280;74260;50.772;7.730;2024-02-16T00:55:06;98408.47;;;12.41;77.08
84143;BME280;74260;50.772;7.730;2024-02-16T00:55:36;98402.72;;;12.45;77.30
84143;BME280;74260;50.772;7.730;2024-02-16T00:56:08;98400.44;;;12.49;77.12
84143;BME280;74260;50.772;7.730;2024-02-16T00:56:38;98406.97;;;12.56;76.29
84143;BME280;74260;50.772;7.730;2024-02-16T00:57:09;98412.03;;;12.54;76.59
84143;BME280;74260;50.772;7.730;2024-02-16T00:57:41;98405.53;;;12.48;76.92
84143;BME280;74260;50.772;7.730;2024-02-16T00:58:12;98408.22;;;12.49;77.09
84143;BME280;74260;50.772;7.730;2024-02-16T00:58:42;98411.34;;;12.57;77.13
84143;BME280;74260;50.772;7.730;2024-02-16T00:59:13;98413.03;;;12.56;77.05
84143;BME280;74260;50.772;7.730;2024-02-16T00:59:43;98403.63;;;12.45;77.41
84143;BME280;74260;50.772;7.730;2024-02-16T01:00:13;98416.56;;;12.45;77.53
84143;BME280;74260;50.772;7.730;2024-02-16T01:00:45;98410.06;;;12.39;77.43
84143;BME280;74260;50.772;7.730;2024-02-16T01:01:16;98407.13;;;12.34;77.87
84143;BME280;74260;50.772;7.730;2024-02-16T01:01:46;98406.13;;;12.32;78.05
84143;BME280;74260;50.772;7.730;2024-02-16T01:02:17;98407.72;;;12.30;78.13
84143;BME280;74260;50.772;7.730;2024-02-16T01:02:47;98397.16;;;12.27;78.52
84143;BME280;74260;50.772;7.730;2024-02-16T01:03:17;98402.66;;;12.32;78.31
84143;BME280;74260;50.772;7.730;2024-02-16T01:03:51;98406.72;;;12.28;78.21
84143;BME280;74260;50.772;7.730;2024-02-16T01:04:22;98404.91;;;12.27;78.30
84143;BME280;74260;50.772;7.730;2024-02-16T01:04:53;98393.25;;;12.21;78.18
84143;BME280;74260;50.772;7.730;2024-02-16T01:05:25;98415.94;;;12.25;78.30
84143;BME280;74260;50.772;7.730;2024-02-16T01:05:55;98419.28;;;12.24;79.16
84143;BME280;74260;50.772;7.730;2024-02-16T01:06:25;98409.97;;;12.26;78.44
84143;BME280;74260;50.772;7.730;2024-02-16T01:06:56;98412.56;;;12.26;78.38
84143;BME280;74260;50.772;7.730;2024-02-16T01:07:26;98411.88;;;12.28;77.99
84143;BME280;74260;50.772;7.730;2024-02-16T01:07:56;98405.16;;;12.30;78.09
84143;BME280;74260;50.772;7.730;2024-02-16T01:08:27;98401.06;;;12.34;77.53
84143;BME280;74260;50.772;7.730;2024-02-16T01:08:57;98404.44;;;12.33;77.74
84143;BME280;74260;50.772;7.730;2024-02-16T01:09:27;98410.19;;;12.29;78.07
84143;BME280;74260;50.772;7.730;2024-02-16T01:09:58;98402.00;;;12.23;78.31
84143;BME280;74260;50.772;7.730;2024-02-16T01:10:30;98418.41;;;12.23;78.57
84143;BME280;74260;50.772;7.730;2024-02-16T01:11:00;98412.00;;;12.18;78.96
84143;BME280;74260;50.772;7.730;2024-02-16T01:11:30;98415.94;;;12.13;78.90
84143;BME280;74260;50.772;7.730;2024-02-16T01:12:01;98407.31;;;12.13;79.59
84143;BME280;74260;50.772;7.730;2024-02-16T01:12:31;98407.19;;;12.11;79.60
84143;BME280;74260;50.772;7.730;2024-02-16T01:13:02;98410.13;;;12.04;80.03
84143;BME280;74260;50.772;7.730;2024-02-16T01:13:36;98411.81;;;12.04;80.25
84143;BME280;74260;50.772;7.730;2024-02-16T01:14:06;98409.22;;;12.04;79.53
84143;BME280;74260;50.772;7.730;2024-02-16T01:14:37;98413.59;;;12.05;79.93
84143;BME280;74260;50.772;7.730;2024-02-16T01:15:10;98407.88;;;12.09;79.12
84143;BME280;74260;50.772;7.730;2024-02-16T01:15:41;98399.56;;;12.13;78.37
84143;BME280;74260;50.772;7.730;2024-02-16T01:16:11;98397.41;;;12.19;77.88
84143;BME280;74260;50.772;7.730;2024-02-16T01:16:42;98401.78;;;12.20;79.72
84143;BME280;74260;50.772;7.730;2024-02-16T01:17:12;98396.03;;;12.24;78.53
84143;BME280;74260;50.772;7.730;2024-02-16T01:17:42;98400.28;;;12.35;77.68
84143;BME280;74260;50.772;7.730;2024-02-16T01:18:13;98392.31;;;12.32;78.50
84143;BME280;74260;50.772;7.730;2024-02-16T01:18:44;98395.88;;;12.34;77.69
84143;BME280;74260;50.772;7.730;2024-02-16T01:19:14;98394.91;;;12.32;77.72
84143;BME280;74260;50.772;7.730;2024-02-16T01:19:45;98401.75;;;12.31;78.70
84143;BME280;74260;50.772;7.730;2024-02-16T01:20:17;98396.38;;;12.28;78.21
84143;BME280;74260;50.772;7.730;2024-02-16T01:20:47;98397.75;;;12.23;78.79
84143;BME280;74260;50.772;7.730;2024-02-16T01:21:17;98388.97;;;12.21;78.26
84143;BME280;74260;50.772;7.730;2024-02-16T01:21:48;98400.09;;;12.32;78.10
84143;BME280;74260;50.772;7.730;2024-02-16T01:22:22;98397.16;;;12.27;78.43
84143;BME280;74260;50.772;7.730;2024-02-16T01:22:52;98399.72;;;12.27;78.98
84143;BME280;74260;50.772;7.730;2024-02-16T01:23:23;98398.63;;;12.24;79.18
84143;BME280;74260;50.772;7.730;2024-02-16T01:23:53;98397.03;;;12.26;77.68
84143;BME280;74260;50.772;7.730;2024-02-16T01:24:24;98400.63;;;12.28;78.23
84143;BME280;74260;50.772;7.730;2024-02-16T01:24:54;98402.00;;;12.23;79.07
84143;BME280;74260;50.772;7.730;2024-02-16T01:25:24;98395.81;;;12.21;79.32
84143;BME280;74260;50.772;7.730;2024-02-16T01:25:55;98405.94;;;12.18;78.52
84143;BME280;74260;50.772;7.730;2024-02-16T01:26:25;98403.16;;;12.15;78.93
84143;BME280;74260;50.772;7.730;2024-02-16T01:26:56;98406.16;;;12.21;78.14
84143;BME280;74260;50.772;7.730;2024-02-16T01:27:26;98403.69;;;12.22;78.91
84143;BME280;74260;50.772;7.730;2024-02-16T01:27:58;98405.59;;;12.25;78.21
84143;BME280;74260;50.772;7.730;2024-02-16T01:28:28;98398.19;;;12.18;79.08
84143;BME280;74260;50.772;7.730;2024-02-16T01:28:59;98393.78;;;12.17;78.62
84143;BME280;74260;50.772;7.730;2024-02-16T01:29:30;98403.38;;;12.18;78.36
84143;BME280;74260;50.772;7.730;2024-02-16T01:30:02;98392.81;;;12.15;78.76
84143;BME280;74260;50.772;7.730;2024-02-16T01:30:33;98392.81;;;12.15;78.66
84143;BME280;74260;50.772;7.730;2024-02-16T01:31:03;98402.47;;;12.17;78.15
84143;BME280;74260;50.772;7.730;2024-02-16T01:31:34;98402.25;;;12.14;78.71
84143;BME280;74260;50.772;7.730;2024-02-16T01:32:06;98392.56;;;12.12;78.53
84143;BME280;74260;50.772;7.730;2024-02-16T01:32:36;98408.06;;;12.12;78.94
84143;BME280;74260;50.772;7.730;2024-02-16T01:33:07;98399.56;;;12.13;78.80
84143;BME280;74260;50.772;7.730;2024-02-16T01:33:37;98402.69;;;12.09;79.57
84143;BME280;74260;50.772;7.730;2024-02-16T01:34:08;98388.56;;;12.04;79.79
84143;BME280;74260;50.772;7.730;2024-02-16T01:34:39;98399.78;;;12.04;79.51
84143;BME280;74260;50.772;7.730;2024-02-16T01:35:09;98398.88;;;12.04;79.34
84143;BME280;74260;50.772;7.730;2024-02-16T01:35:40;98399.69;;;12.03;79.16
84143;BME280;74260;50.772;7.730;2024-02-16T01:36:10;98406.28;;;12.11;79.57
84143;BME280;74260;50.772;7.730;2024-02-16T01:36:40;98403.16;;;12.15;77.75
84143;BME280;74260;50.772;7.730;2024-02-16T01:37:11;98392.13;;;12.17;78.13
84143;BME280;74260;50.772;7.730;2024-02-16T01:37:42;98406.72;;;12.17;78.62
84143;BME280;74260;50.772;7.730;2024-02-16T01:38:12;98405.38;;;12.10;78.80
84143;BME280;74260;50.772;7.730;2024-02-16T01:38:43;98408.06;;;12.12;80.29
84143;BME280;74260;50.772;7.730;2024-02-16T01:39:13;98405.06;;;12.06;80.51
84143;BME280;74260;50.772;7.730;2024-02-16T01:39:44;98396.75;;;11.98;79.97
84143;BME280;74260;50.772;7.730;2024-02-16T01:40:15;98413.59;;;12.05;80.32
84143;BME280;74260;50.772;7.730;2024-02-16T01:40:47;98398.53;;;12.11;78.37
84143;BME280;74260;50.772;7.730;2024-02-16T01:41:17;98411.69;;;12.14;79.15
84143;BME280;74260;50.772;7.730;2024-02-16T01:41:48;98406.50;;;12.14;79.97
84143;BME280;74260;50.772;7.730;2024-02-16T01:42:18;98402.69;;;12.09;80.15
84143;BME280;74260;50.772;7.730;2024-02-16T01:42:48;98405.28;;;12.09;79.62
84143;BME280;74260;50.772;7.730;2024-02-16T01:43:25;98406.84;;;12.07;79.65
84143;BME280;74260;50.772;7.730;2024-02-16T01:43:56;98404.72;;;12.01;79.87
84143;BME280;74260;50.772;7.730;2024-02-16T01:44:26;98409.88;;;12.01;79.48
84143;BME280;74260;50.772;7.730;2024-02-16T01:44:56;98405.41;;;11.99;80.81
84143;BME280;74260;50.772;7.730;2024-02-16T01:45:27;98403.84;;;12.01;79.65
84143;BME280;74260;50.772;7.730;2024-02-16T01:45:57;98412.34;;;12.00;80.72
84143;BME280;74260;50.772;7.730;2024-02-16T01:46:29;98420.91;;;11.99;80.85
84143;BME280;74260;50.772;7.730;2024-02-16T01:47:00;98413.72;;;11.95;80.92
84143;BME280;74260;50.772;7.730;2024-02-16T01:47:31;98416.19;;;11.93;80.64
84143;BME280;74260;50.772;7.730;2024-02-16T01:48:02;98410.13;;;11.93;81.17
84143;BME280;74260;50.772;7.730;2024-02-16T01:48:32;98391.41;;;11.84;81.21
84143;BME280;74260;50.772;7.730;2024-02-16T01:49:03;98404.31;;;11.84;80.49
84143;BME280;74260;50.772;7.730;2024-02-16T01:49:34;98397.78;;;11.89;80.37
84143;BME280;74260;50.772;7.730;2024-02-16T01:50:04;98399.78;;;11.93;79.97
84143;BME280;74260;50.772;7.730;2024-02-16T01:50:35;98412.03;;;11.95;80.88
84143;BME280;74260;50.772;7.730;2024-02-16T01:51:07;98415.28;;;11.93;80.24
84143;BME280;74260;50.772;7.730;2024-02-16T01:51:38;98414.31;;;11.91;81.25
84143;BME280;74260;50.772;7.730;2024-02-16T01:52:09;98405.44;;;11.87;81.02
84143;BME280;74260;50.772;7.730;2024-02-16T01:52:39;98404.75;;;11.90;80.50
84143;BME280;74260;50.772;7.730;2024-02-16T01:53:11;98404.94;;;11.93;81.18
84143;BME280;74260;50.772;7.730;2024-02-16T01:53:42;98401.25;;;11.89;81.40
84143;BME280;74260;50.772;7.730;2024-02-16T01:54:12;98399.38;;;11.87;81.83
84143;BME280;74260;50.772;7.730;2024-02-16T01:54:42;98399.38;;;11.87;80.91
84143;BME280;74260;50.772;7.730;2024-02-16T01:55:17;98387.00;;;11.83;80.60
84143;BME280;74260;50.772;7.730;2024-02-16T01:55:47;98389.81;;;11.86;80.60
84143;BME280;74260;50.772;7.730;2024-02-16T01:56:18;98394.97;;;11.97;80.14
84143;BME280;74260;50.772;7.730;2024-02-16T01:56:50;98394.06;;;11.97;80.05
84143;BME280;74260;50.772;7.730;2024-02-16T01:57:21;98391.94;;;12.03;79.19
84143;BME280;74260;50.772;7.730;2024-02-16T01:57:52;98391.94;;;12.03;79.85
84143;BME280;74260;50.772;7.730;2024-02-16T01:58:22;98396.53;;;12.07;79.26
84143;BME280;74260;50.772;7.730;2024-02-16T01:58:53;98392.16;;;12.06;78.80
84143;BME280;74260;50.772;7.730;2024-02-16T01:59:23;98390.00;;;12.12;78.52
84143;BME280;74260;50.772;7.730;2024-02-16T01:59:54;98399.97;;;12.19;78.79
84143;BME280;74260;50.772;7.730;2024-02-16T02:00:24;98389.31;;;12.14;79.19
84143;BME280;74260;50.772;7.730;2024-02-16T02:00:56;98394.81;;;12.19;79.49
84143;BME280;74260;50.772;7.730;2024-02-16T02:01:26;98389.84;;;12.22;78.64
84143;BME280;74260;50.772;7.730;2024-02-16T02:01:56;98391.66;;;12.23;78.43
84143;BME280;74260;50.772;7.730;2024-02-16T02:02:27;98395.69;;;12.31;78.31
84143;BME280;74260;50.772;7.730;2024-02-16T02:02:57;98394.81;;;12.30;77.61
84143;BME280;74260;50.772;7.730;2024-02-16T02:03:28;98390.50;;;12.31;78.44
84143;BME280;74260;50.772;7.730;2024-02-16T02:03:59;98404.66;;;12.36;77.85
84143;BME280;74260;50.772;7.730;2024-02-16T02:04:29;98396.78;;;12.34;78.10
84143;BME280;74260;50.772;7.730;2024-02-16T02:05:00;98384.56;;;12.32;79.06
84143;BME280;74260;50.772;7.730;2024-02-16T02:05:31;98400.28;;;12.35;78.73
84143;BME280;74260;50.772;7.730;2024-02-16T02:06:02;98399.50;;;12.36;77.22
84143;BME280;74260;50.772;7.730;2024-02-16T02:06:33;98400.19;;;12.33;78.25
84143;BME280;74260;50.772;7.730;2024-02-16T02:07:15;98388.72;;;12.30;77.57
84143;BME280;74260;50.772;7.730;2024-02-16T02:07:46;98400.94;;;12.32;78.25
84143;BME280;74260;50.772;7.730;2024-02-16T02:08:17;98393.91;;;12.30;79.39
84143;BME280;74260;50.772;7.730;2024-02-16T02:08:47;98398.88;;;12.27;79.60
84143;BME280;74260;50.772;7.730;2024-02-16T02:09:17;98388.06;;;12.21;79.51
84143;BME280;74260;50.772;7.730;2024-02-16T02:09:48;98398.06;;;12.28;78.84
84143;BME280;74260;50.772;7.730;2024-02-16T02:10:18;98391.41;;;12.31;78.43
84143;BME280;74260;50.772;7.730;2024-02-16T02:10:49;98390.50;;;12.31;78.01
84143;BME280;74260;50.772;7.730;2024-02-16T02:11:19;98389.50;;;12.29;78.54
84143;BME280;74260;50.772;7.730;2024-02-16T02:11:50;98396.28;;;12.27;78.84
84143;BME280;74260;50.772;7.730;2024-02-16T02:12:22;98390.75;;;12.22;79.46
84143;BME280;74260;50.772;7.730;2024-02-16T02:12:52;98385.59;;;12.22;79.19
84143;BME280;74260;50.772;7.730;2024-02-16T02:13:23;98369.78;;;12.18;79.07
84143;BME280;74260;50.772;7.730;2024-02-16T02:13:53;98393.00;;;12.29;78.54
84143;BME280;74260;50.772;7.730;2024-02-16T02:14:24;98392.44;;;12.22;79.94
84143;BME280;74260;50.772;7.730;2024-02-16T02:14:56;98398.19;;;12.18;79.36
84143;BME280;74260;50.772;7.730;2024-02-16T02:15:26;98395.50;;;12.16;79.70
84143;BME280;74260;50.772;7.730;2024-02-16T02:15:58;98396.16;;;12.14;79.36
84143;BME280;74260;50.772;7.730;2024-02-16T02:16:29;98396.16;;;12.14;80.27
84143;BME280;74260;50.772;7.730;2024-02-16T02:16:59;98394.84;;;12.07;78.89
84143;BME280;74260;50.772;7.730;2024-02-16T02:17:30;98401.13;;;12.11;80.11
84143;BME280;74260;50.772;7.730;2024-02-16T02:18:00;98394.94;;;12.09;80.06
84143;BME280;74260;50.772;7.730;2024-02-16T02:18:31;98397.09;;;12.03;81.47
84143;BME280;74260;50.772;7.730;2024-02-16T02:19:01;98394.06;;;11.97;81.82
84143;BME280;74260;50.772;7.730;2024-02-16T02:19:31;98394.97;;;11.97;81.52
84143;BME280;74260;50.772;7.730;2024-02-16T02:20:03;98386.88;;;11.93;80.74
84143;BME280;74260;50.772;7.730;2024-02-16T02:20:34;98394.50;;;11.91;80.92
84143;BME280;74260;50.772;7.730;2024-02-16T02:21:04;98379.72;;;11.89;80.73
84143;BME280;74260;50.772;7.730;2024-02-16T02:21:35;98391.28;;;11.94;81.14
84143;BME280;74260;50.772;7.730;2024-02-16T02:22:13;98377.91;;;11.88;81.10
84143;BME280;74260;50.772;7.730;2024-02-16T02:22:44;98378.16;;;11.91;80.65
84143;BME280;74260;50.772;7.730;2024-02-16T02:23:14;98385.91;;;11.91;82.31
84143;BME280;74260;50.772;7.730;2024-02-16T02:23:44;98390.03;;;11.89;81.99
84143;BME280;74260;50.772;7.730;2024-02-16T02:24:16;98379.72;;;11.89;81.35
84143;BME280;74260;50.772;7.730;2024-02-16T02:24:50;98382.06;;;11.86;82.53
84143;BME280;74260;50.772;7.730;2024-02-16T02:25:20;98376.56;;;11.81;81.13
84143;BME280;74260;50.772;7.730;2024-02-16T02:25:51;98384.53;;;11.84;80.96
84143;BME280;74260;50.772;7.730;2024-02-16T02:26:22;98390.59;;;11.85;80.85
84143;BME280;74260;50.772;7.730;2024-02-16T02:26:52;98386.88;;;11.93;80.56
84143;BME280;74260;50.772;7.730;2024-02-16T02:27:22;98387.66;;;12.03;79.55
84143;BME280;74260;50.772;7.730;2024-02-16T02:27:53;98391.25;;;12.05;79.57
84143;BME280;74260;50.772;7.730;2024-02-16T02:28:26;98391.94;;;12.03;80.03
84143;BME280;74260;50.772;7.730;2024-02-16T02:28:56;98386.78;;;12.03;80.20
84143;BME280;74260;50.772;7.730;2024-02-16T02:29:27;98397.09;;;12.03;79.31
84143;BME280;74260;50.772;7.730;2024-02-16T02:29:57;98392.81;;;12.03;80.30
84143;BME280;74260;50.772;7.730;2024-02-16T02:30:28;98388.34;;;12.01;80.36
84143;BME280;74260;50.772;7.730;2024-02-16T02:30:59;98387.34;;;11.99;80.98
84143;BME280;74260;50.772;7.730;2024-02-16T02:31:29;98391.81;;;12.01;80.34
84143;BME280;74260;50.772;7.730;2024-02-16T02:31:59;98390.13;;;12.02;80.01
84143;BME280;74260;50.772;7.730;2024-02-16T02:32:30;98400.66;;;12.05;79.81
84143;BME280;74260;50.772;7.730;2024-02-16T02:33:00;98389.56;;;12.06;80.51
84143;BME280;74260;50.772;7.730;2024-02-16T02:33:30;98394.75;;;12.06;80.27
84143;BME280;74260;50.772;7.730;2024-02-16T02:34:01;98398.44;;;12.09;79.00
84143;BME280;74260;50.772;7.730;2024-02-16T02:34:32;98383.16;;;12.12;79.16
84143;BME280;74260;50.772;7.730;2024-02-16T02:35:02;98380.31;;;12.21;79.02
84143;BME280;74260;50.772;7.730;2024-02-16T02:35:34;98374.50;;;12.23;78.68
84143;BME280;74260;50.772;7.730;2024-02-16T02:36:05;98375.81;;;12.30;78.58
84143;BME280;74260;50.772;7.730;2024-02-16T02:36:35;98373.88;;;12.39;77.62
84143;BME280;74260;50.772;7.730;2024-02-16T02:37:06;98377.25;;;12.38;77.81
84143;BME280;74260;50.772;7.730;2024-02-16T02:37:36;98372.16;;;12.39;77.64
84143;BME280;74260;50.772;7.730;2024-02-16T02:38:06;98376.78;;;12.43;77.32
84143;BME280;74260;50.772;7.730;2024-02-16T02:38:37;98382.25;;;12.48;77.87
84143;BME280;74260;50.772;7.730;2024-02-16T02:39:07;98381.94;;;12.43;77.34
84143;BME280;74260;50.772;7.730;2024-02-16T02:39:38;98387.31;;;12.46;78.29
84143;BME280;74260;50.772;7.730;2024-02-16T02:40:08;98377.88;;;12.47;76.67
84143;BME280;74260;50.772;7.730;2024-02-16T02:40:39;98379.91;;;12.51;76.83
84143;BME280;74260;50.772;7.730;2024-02-16T02:41:09;98377.72;;;12.57;76.43
84143;BME280;74260;50.772;7.730;2024-02-16T02:41:39;98381.13;;;12.56;77.33
84143;BME280;74260;50.772;7.730;2024-02-16T02:42:10;98376.97;;;12.58;77.05
84143;BME280;74260;50.772;7.730;2024-02-16T02:42:41;98362.75;;;12.64;75.89
84143;BME280;74260;50.772;7.730;2024-02-16T02:43:11;98369.44;;;12.74;76.29